Blackwell Dairy 3K

Back to 2017 Road Races

2017 Road Race

2017-05-28, Kamloops, 3.0 km
# Name City Age GP CP Time Pace
1 Samuel St-Pierre Kamloops M01-15 0:15:35 05:11
2 Eli Bruno Kamloops M01-15 0:16:17 05:25
3 Charlie Bruno Kamloops M45-49 0:16:18 05:26
4 Nate Hardy Coldstream M01-15 4 0:16:31 05:30
5 Jt Twemlow Kamloops M01-15 5 4 0:16:41 05:33
6 Trevor Twemlow Kamloops M40-44 6 0:16:42 05:34
7 Navin Campbell Kamloops M01-15 7 5 0:17:08 05:42
8 Gavin Smith Kamloops M01-15 8 6 0:17:16 05:45
9 Hudson Duhaime Kamloops M01-15 9 7 0:17:18 05:46
10 Barry Voth M30-34 10 0:17:26 05:48
11 Crystal Huscroft Kamloops F40-44 0:17:35 05:51
12 Gabi Dinn Pritchard F01-15 0:18:08 06:02
13 Lienke Raath Kamloops F01-15 0:18:50 06:16
14 Janine Klopfstein F01-15 4 0:18:51 06:17
15 Ruby Dinn Pritchard F01-15 5 4 0:18:52 06:17
16 Trevor Dinn Pritchard M45-49 11 0:18:52 06:17
17 Hayden Bouffard M01-15 12 8 0:19:06 06:22
18 Phil Bouffard M35-39 13 0:19:06 06:22
19 Carmine Kleindienst Kamloops F30-34 6 0:19:14 06:24
20 Lucas Klopfstein M01-15 14 9 0:19:48 06:36
21 Stephany Dinn Pritchard F50-54 7 0:21:14 07:04
22 Tricia Wood Kamloops F45-49 8 0:21:19 07:06
23 Deborah Kennedy Kamloops F60-64 9 0:21:23 07:07
24 Jared Roberts Kamloops M01-15 15 10 0:21:38 07:12
25 Tyler Roberts Kamloops M35-39 16 0:21:38 07:12
26 Willow Thring Kamloops F01-15 10 5 0:22:07 07:22
27 Brandi Thring Kamloops F40-44 11 0:22:08 07:22
28 Ashley Quigley Kelowna F01-15 12 6 0:22:45 07:35
29 Elmira Thibeault Kamloops F01-15 13 7 0:22:55 07:38
30 Cadence Quigley Kelowna F01-15 14 8 0:24:00 08:00
31 Caitlyn Cryderman F25-29 15 0:24:35 08:11
32 Chris Cantin M35-39 17 0:24:35 08:11
33 Cindy Dueck Kamloops F55-59 16 0:24:40 08:13
34 Felicity Campbell Kamloops F01-15 17 9 0:25:48 08:36
35 Noah Leary Kamloops M01-15 18 11 0:25:59 08:39
36 Jodi Roberts Kamloops F40-44 18 0:26:32 08:50
37 Kayleigh Roberts Kamloops F01-15 19 10 0:26:33 08:51
38 Gloria Klopfstein F50-54 20 0:26:37 08:52
39 Camille Hardy Coldstream F01-15 21 11 0:26:41 08:53
40 Clara Hardy Coldstream F16-19 22 0:26:41 08:53
41 Lizzy Garvie Coldstream F16-19 23 0:26:41 08:53
42 Pippa Hardy Coldstream F01-15 24 12 0:26:42 08:54
43 Myles Campbell Kamloops M01-15 19 12 0:27:05 09:01
44 Laura Kelly Kamloops F60-64 25 0:27:06 09:02
45 Kaleb Ryde Kamloops M01-15 20 13 0:27:24 09:08
46 James Cryderman M01-15 21 14 0:27:30 09:10
47 Nathan Weston Kamloops M01-15 22 14 0:27:30 09:10
48 Freja Taylor Kamloops F01-15 26 13 0:27:32 09:10
49 Elise Bruno Kamloops F50-54 27 0:27:32 09:10
50 Tania Mccartney Kamloops F40-44 28 4 0:27:33 09:11
51 Sebastien St-Pierre Kamloops M20-24 23 0:28:07 09:22
52 Eric Brise Kamloops M01-15 24 16 0:28:07 09:22
53 Emeric St-Pierre Kamloops M01-15 25 17 0:28:08 09:22
54 Christian St-Pierre Kamloops M45-49 26 0:28:08 09:22
55 Karen Kamp Kamloops F55-59 29 0:28:58 09:39
56 Claire Weston Kamloops F01-15 30 14 0:29:13 09:44
57 Bernice Debert Kamloops F55-59 31 0:29:14 09:44
58 Denise Ovington Kamloops F45-49 32 0:29:14 09:44
59 Tammy Leary Kamloops F40-44 33 5 0:29:50 09:56
60 Tyson Cuesta M01-15 27 18 0:30:26 10:08
61 Amy Kamp Kamloops F30-34 34 0:30:40 10:13
62 Talia Kamp Kamloops F01-15 35 15 0:30:42 10:14
63 Corey Kamp Kamloops M30-34 28 0:30:44 10:14
64 Grace Graham Kamloops F40-44 36 6 0:33:33 11:11
65 Lily Holly Kamloops F01-15 37 16 0:36:05 12:01
66 Brian Holly Kamloops M40-44 29 0:36:06 12:02
67 Paxton Mayden M01-15 30 19 0:37:50 12:36
68 Adam Brise Kamloops M01-15 31 20 0:37:52 12:37
69 Stacey Cuesta F40-44 38 7 0:38:59 12:59
70 Maike Mayden F30-34 39 0:39:00 13:00
71 Isla Evans Kamloops F01-15 40 17 0:40:02 13:20
72 Kara Evans Kamloops F30-34 41 4 0:40:02 13:20
73 Audrey Leclair Kamloops F01-15 42 18 0:40:34 13:31
74 Tanya Leclair F40-44 43 8 0:40:35 13:31
75 Lane Leclair Kamloops F65-69 44 0:40:55 13:38
76 Tracy Leclair Kamloops F35-39 45 0:40:56 13:38
77 Christine Leclair Kamloops F40-44 46 9 0:40:56 13:38
78 Wendy Glass F65-69 47 0:41:02 13:40
79 Felix Tsuji Kamloops M01-15 32 21 0:48:36 16:12
80 Rawya Tsuji Kamloops F35-39 48 0:48:37 16:12
Missing or Incorrect Results